sensor_id;sensor_type;location;lat;lon;timestamp;P1;durP1;ratioP1;P2;durP2;ratioP2
83151;SDS011;73381;58.502;8.624;2023-12-20T00:01:16;2.97;;;0.60;;
83151;SDS011;73381;58.502;8.624;2023-12-20T00:04:29;2.50;;;0.40;;
83151;SDS011;73381;58.502;8.624;2023-12-20T00:07:47;1.75;;;0.40;;
83151;SDS011;73381;58.502;8.624;2023-12-20T00:10:52;3.15;;;1.10;;
83151;SDS011;73381;58.502;8.624;2023-12-20T00:14:00;2.65;;;0.50;;
83151;SDS011;73381;58.502;8.624;2023-12-20T00:17:07;5.25;;;0.68;;
83151;SDS011;73381;58.502;8.624;2023-12-20T00:20:24;2.33;;;0.52;;
83151;SDS011;73381;58.502;8.624;2023-12-20T00:23:30;4.03;;;0.43;;
83151;SDS011;73381;58.502;8.624;2023-12-20T00:26:50;2.00;;;0.65;;
83151;SDS011;73381;58.502;8.624;2023-12-20T00:29:55;2.83;;;0.47;;
83151;SDS011;73381;58.502;8.624;2023-12-20T00:33:05;2.97;;;0.52;;
83151;SDS011;73381;58.502;8.624;2023-12-20T00:36:08;7.55;;;0.57;;
83151;SDS011;73381;58.502;8.624;2023-12-20T00:39:23;1.52;;;0.50;;
83151;SDS011;73381;58.502;8.624;2023-12-20T00:42:26;4.82;;;0.90;;
83151;SDS011;73381;58.502;8.624;2023-12-20T00:45:29;1.88;;;0.57;;
83151;SDS011;73381;58.502;8.624;2023-12-20T00:48:38;3.78;;;0.80;;
83151;SDS011;73381;58.502;8.624;2023-12-20T00:51:40;4.25;;;0.90;;
83151;SDS011;73381;58.502;8.624;2023-12-20T00:54:54;2.20;;;0.50;;
83151;SDS011;73381;58.502;8.624;2023-12-20T00:58:00;1.73;;;0.50;;
83151;SDS011;73381;58.502;8.624;2023-12-20T01:01:02;3.72;;;1.23;;
83151;SDS011;73381;58.502;8.624;2023-12-20T01:04:14;2.05;;;0.30;;
83151;SDS011;73381;58.502;8.624;2023-12-20T01:07:43;4.05;;;0.40;;
83151;SDS011;73381;58.502;8.624;2023-12-20T01:10:50;2.63;;;0.38;;
83151;SDS011;73381;58.502;8.624;2023-12-20T01:14:04;1.92;;;0.68;;
83151;SDS011;73381;58.502;8.624;2023-12-20T01:17:08;2.60;;;0.50;;
83151;SDS011;73381;58.502;8.624;2023-12-20T01:20:13;5.68;;;0.80;;
83151;SDS011;73381;58.502;8.624;2023-12-20T01:23:19;3.20;;;0.43;;
83151;SDS011;73381;58.502;8.624;2023-12-20T01:26:22;3.53;;;0.95;;
83151;SDS011;73381;58.502;8.624;2023-12-20T01:29:25;3.50;;;0.80;;
83151;SDS011;73381;58.502;8.624;2023-12-20T01:32:29;0.70;;;0.20;;
83151;SDS011;73381;58.502;8.624;2023-12-20T01:38:52;2.58;;;0.55;;
83151;SDS011;73381;58.502;8.624;2023-12-20T01:41:54;3.10;;;0.30;;
83151;SDS011;73381;58.502;8.624;2023-12-20T01:44:58;1.23;;;0.30;;
83151;SDS011;73381;58.502;8.624;2023-12-20T01:48:06;5.05;;;0.50;;
83151;SDS011;73381;58.502;8.624;2023-12-20T01:51:11;0.50;;;0.08;;
83151;SDS011;73381;58.502;8.624;2023-12-20T01:57:30;0.77;;;0.20;;
83151;SDS011;73381;58.502;8.624;2023-12-20T02:00:46;3.65;;;0.43;;
83151;SDS011;73381;58.502;8.624;2023-12-20T02:03:56;0.45;;;0.20;;
83151;SDS011;73381;58.502;8.624;2023-12-20T02:07:22;0.68;;;0.10;;
83151;SDS011;73381;58.502;8.624;2023-12-20T02:10:27;1.38;;;0.30;;
83151;SDS011;73381;58.502;8.624;2023-12-20T02:16:33;0.63;;;0.20;;
83151;SDS011;73381;58.502;8.624;2023-12-20T02:19:49;1.40;;;0.43;;
83151;SDS011;73381;58.502;8.624;2023-12-20T02:22:56;3.90;;;0.30;;
83151;SDS011;73381;58.502;8.624;2023-12-20T02:25:59;0.22;;;0.03;;
83151;SDS011;73381;58.502;8.624;2023-12-20T02:29:05;1.13;;;0.20;;
83151;SDS011;73381;58.502;8.624;2023-12-20T02:32:13;0.13;;;0.10;;
83151;SDS011;73381;58.502;8.624;2023-12-20T02:35:17;0.38;;;0.10;;
83151;SDS011;73381;58.502;8.624;2023-12-20T02:41:32;1.92;;;0.45;;
83151;SDS011;73381;58.502;8.624;2023-12-20T02:44:41;0.00;;;0.00;;
83151;SDS011;73381;58.502;8.624;2023-12-20T02:47:52;0.00;;;0.00;;
83151;SDS011;73381;58.502;8.624;2023-12-20T02:50:56;0.00;;;0.00;;
83151;SDS011;73381;58.502;8.624;2023-12-20T02:54:02;1.08;;;0.17;;
83151;SDS011;73381;58.502;8.624;2023-12-20T02:57:08;0.52;;;0.00;;
83151;SDS011;73381;58.502;8.624;2023-12-20T03:00:13;0.85;;;0.10;;
83151;SDS011;73381;58.502;8.624;2023-12-20T03:03:23;1.48;;;0.10;;
83151;SDS011;73381;58.502;8.624;2023-12-20T03:06:40;0.98;;;0.20;;
83151;SDS011;73381;58.502;8.624;2023-12-20T03:09:49;2.28;;;0.20;;
83151;SDS011;73381;58.502;8.624;2023-12-20T03:13:19;1.80;;;0.30;;
83151;SDS011;73381;58.502;8.624;2023-12-20T03:16:28;0.35;;;0.10;;
83151;SDS011;73381;58.502;8.624;2023-12-20T03:19:33;1.35;;;0.05;;
83151;SDS011;73381;58.502;8.624;2023-12-20T03:22:36;0.85;;;0.10;;
83151;SDS011;73381;58.502;8.624;2023-12-20T03:25:51;1.58;;;0.20;;
83151;SDS011;73381;58.502;8.624;2023-12-20T03:28:53;0.85;;;0.05;;
83151;SDS011;73381;58.502;8.624;2023-12-20T03:31:57;0.35;;;0.00;;
83151;SDS011;73381;58.502;8.624;2023-12-20T03:35:08;1.05;;;0.17;;
83151;SDS011;73381;58.502;8.624;2023-12-20T03:38:13;0.00;;;0.00;;
83151;SDS011;73381;58.502;8.624;2023-12-20T03:44:27;5.68;;;0.20;;
83151;SDS011;73381;58.502;8.624;2023-12-20T03:47:32;0.00;;;0.00;;
83151;SDS011;73381;58.502;8.624;2023-12-20T03:53:41;0.77;;;0.10;;
83151;SDS011;73381;58.502;8.624;2023-12-20T03:56:48;1.08;;;0.35;;
83151;SDS011;73381;58.502;8.624;2023-12-20T03:59:51;2.60;;;0.30;;
83151;SDS011;73381;58.502;8.624;2023-12-20T04:02:55;1.25;;;0.38;;
83151;SDS011;73381;58.502;8.624;2023-12-20T04:06:03;1.30;;;0.10;;
83151;SDS011;73381;58.502;8.624;2023-12-20T04:09:10;2.80;;;0.20;;
83151;SDS011;73381;58.502;8.624;2023-12-20T04:12:24;1.45;;;0.28;;
83151;SDS011;73381;58.502;8.624;2023-12-20T04:15:26;0.45;;;0.10;;
83151;SDS011;73381;58.502;8.624;2023-12-20T04:18:30;4.85;;;0.50;;
83151;SDS011;73381;58.502;8.624;2023-12-20T04:21:32;3.28;;;0.30;;
83151;SDS011;73381;58.502;8.624;2023-12-20T04:24:35;3.10;;;0.28;;
83151;SDS011;73381;58.502;8.624;2023-12-20T04:30:49;3.40;;;0.50;;
83151;SDS011;73381;58.502;8.624;2023-12-20T04:33:58;0.82;;;0.17;;
83151;SDS011;73381;58.502;8.624;2023-12-20T04:37:04;1.40;;;0.25;;
83151;SDS011;73381;58.502;8.624;2023-12-20T04:40:07;0.43;;;0.08;;
83151;SDS011;73381;58.502;8.624;2023-12-20T04:43:15;1.85;;;0.47;;
83151;SDS011;73381;58.502;8.624;2023-12-20T04:46:20;1.15;;;0.35;;
83151;SDS011;73381;58.502;8.624;2023-12-20T04:52:27;2.22;;;0.10;;
83151;SDS011;73381;58.502;8.624;2023-12-20T04:55:39;1.52;;;0.30;;
83151;SDS011;73381;58.502;8.624;2023-12-20T04:58:48;2.05;;;0.70;;
83151;SDS011;73381;58.502;8.624;2023-12-20T05:01:54;2.72;;;0.70;;
83151;SDS011;73381;58.502;8.624;2023-12-20T05:04:56;3.53;;;0.50;;
83151;SDS011;73381;58.502;8.624;2023-12-20T05:07:58;4.30;;;0.55;;
83151;SDS011;73381;58.502;8.624;2023-12-20T05:11:04;1.25;;;0.30;;
83151;SDS011;73381;58.502;8.624;2023-12-20T05:14:11;1.88;;;0.50;;
83151;SDS011;73381;58.502;8.624;2023-12-20T05:17:17;3.60;;;0.77;;
83151;SDS011;73381;58.502;8.624;2023-12-20T05:20:24;3.17;;;0.70;;
83151;SDS011;73381;58.502;8.624;2023-12-20T05:23:27;4.15;;;0.50;;
83151;SDS011;73381;58.502;8.624;2023-12-20T05:26:30;3.03;;;0.50;;
83151;SDS011;73381;58.502;8.624;2023-12-20T05:29:42;2.20;;;0.40;;
83151;SDS011;73381;58.502;8.624;2023-12-20T05:32:45;2.60;;;0.80;;
83151;SDS011;73381;58.502;8.624;2023-12-20T05:35:47;4.22;;;0.80;;
83151;SDS011;73381;58.502;8.624;2023-12-20T05:38:51;2.30;;;0.50;;
83151;SDS011;73381;58.502;8.624;2023-12-20T05:41:54;2.90;;;0.47;;
83151;SDS011;73381;58.502;8.624;2023-12-20T05:48:01;3.53;;;1.20;;
83151;SDS011;73381;58.502;8.624;2023-12-20T05:51:03;2.45;;;0.75;;
83151;SDS011;73381;58.502;8.624;2023-12-20T05:54:09;2.38;;;0.45;;
83151;SDS011;73381;58.502;8.624;2023-12-20T05:57:11;2.75;;;0.65;;
83151;SDS011;73381;58.502;8.624;2023-12-20T06:00:20;4.03;;;0.68;;
83151;SDS011;73381;58.502;8.624;2023-12-20T06:03:23;3.42;;;0.85;;
83151;SDS011;73381;58.502;8.624;2023-12-20T06:06:34;1.80;;;0.60;;
83151;SDS011;73381;58.502;8.624;2023-12-20T06:09:43;2.30;;;0.60;;
83151;SDS011;73381;58.502;8.624;2023-12-20T06:12:57;1.80;;;0.63;;
83151;SDS011;73381;58.502;8.624;2023-12-20T06:16:06;1.85;;;0.47;;
83151;SDS011;73381;58.502;8.624;2023-12-20T06:19:11;1.85;;;0.50;;
83151;SDS011;73381;58.502;8.624;2023-12-20T06:22:14;3.60;;;0.73;;
83151;SDS011;73381;58.502;8.624;2023-12-20T06:25:17;3.70;;;0.73;;
83151;SDS011;73381;58.502;8.624;2023-12-20T06:28:20;4.28;;;1.10;;
83151;SDS011;73381;58.502;8.624;2023-12-20T06:31:26;4.80;;;0.90;;
83151;SDS011;73381;58.502;8.624;2023-12-20T06:34:28;6.10;;;1.63;;
83151;SDS011;73381;58.502;8.624;2023-12-20T06:40:37;4.43;;;1.13;;
83151;SDS011;73381;58.502;8.624;2023-12-20T06:43:41;2.30;;;1.25;;
83151;SDS011;73381;58.502;8.624;2023-12-20T06:46:52;5.82;;;1.25;;
83151;SDS011;73381;58.502;8.624;2023-12-20T06:50:00;7.53;;;1.55;;
83151;SDS011;73381;58.502;8.624;2023-12-20T06:53:04;9.32;;;1.58;;
83151;SDS011;73381;58.502;8.624;2023-12-20T06:56:08;3.72;;;1.55;;
83151;SDS011;73381;58.502;8.624;2023-12-20T06:59:18;5.07;;;1.50;;
83151;SDS011;73381;58.502;8.624;2023-12-20T07:02:26;4.15;;;1.23;;
83151;SDS011;73381;58.502;8.624;2023-12-20T07:05:28;5.22;;;1.17;;
83151;SDS011;73381;58.502;8.624;2023-12-20T07:11:35;5.43;;;0.93;;
83151;SDS011;73381;58.502;8.624;2023-12-20T07:14:38;3.40;;;1.05;;
83151;SDS011;73381;58.502;8.624;2023-12-20T07:17:45;5.78;;;1.40;;
83151;SDS011;73381;58.502;8.624;2023-12-20T07:20:50;5.38;;;1.35;;
83151;SDS011;73381;58.502;8.624;2023-12-20T07:23:55;3.60;;;1.33;;
83151;SDS011;73381;58.502;8.624;2023-12-20T07:27:01;4.38;;;1.67;;
83151;SDS011;73381;58.502;8.624;2023-12-20T07:30:04;5.25;;;1.77;;
83151;SDS011;73381;58.502;8.624;2023-12-20T07:33:13;6.28;;;1.30;;
83151;SDS011;73381;58.502;8.624;2023-12-20T07:36:16;6.15;;;1.15;;
83151;SDS011;73381;58.502;8.624;2023-12-20T07:39:18;2.50;;;1.10;;
83151;SDS011;73381;58.502;8.624;2023-12-20T07:42:27;4.15;;;1.27;;
83151;SDS011;73381;58.502;8.624;2023-12-20T07:45:30;6.10;;;1.60;;
83151;SDS011;73381;58.502;8.624;2023-12-20T07:48:41;4.43;;;1.25;;
83151;SDS011;73381;58.502;8.624;2023-12-20T07:51:46;7.25;;;1.55;;
83151;SDS011;73381;58.502;8.624;2023-12-20T07:54:50;5.85;;;1.50;;
83151;SDS011;73381;58.502;8.624;2023-12-20T07:57:55;3.50;;;1.48;;
83151;SDS011;73381;58.502;8.624;2023-12-20T08:00:58;5.38;;;1.67;;
83151;SDS011;73381;58.502;8.624;2023-12-20T08:04:05;3.25;;;1.13;;
83151;SDS011;73381;58.502;8.624;2023-12-20T08:07:16;7.63;;;1.40;;
83151;SDS011;73381;58.502;8.624;2023-12-20T08:10:24;6.15;;;1.17;;
83151;SDS011;73381;58.502;8.624;2023-12-20T08:13:28;6.88;;;2.05;;
83151;SDS011;73381;58.502;8.624;2023-12-20T08:16:30;5.65;;;1.75;;
83151;SDS011;73381;58.502;8.624;2023-12-20T08:19:35;7.00;;;1.52;;
83151;SDS011;73381;58.502;8.624;2023-12-20T08:22:37;5.30;;;1.50;;
83151;SDS011;73381;58.502;8.624;2023-12-20T08:25:42;3.45;;;1.42;;
83151;SDS011;73381;58.502;8.624;2023-12-20T08:28:47;3.85;;;1.40;;
83151;SDS011;73381;58.502;8.624;2023-12-20T08:31:54;6.65;;;1.80;;
83151;SDS011;73381;58.502;8.624;2023-12-20T08:35:03;4.97;;;1.35;;
83151;SDS011;73381;58.502;8.624;2023-12-20T08:38:08;3.88;;;1.42;;
83151;SDS011;73381;58.502;8.624;2023-12-20T08:41:15;2.65;;;1.48;;
83151;SDS011;73381;58.502;8.624;2023-12-20T08:44:20;5.15;;;1.50;;
83151;SDS011;73381;58.502;8.624;2023-12-20T08:47:24;2.80;;;1.35;;
83151;SDS011;73381;58.502;8.624;2023-12-20T08:50:28;2.85;;;1.08;;
83151;SDS011;73381;58.502;8.624;2023-12-20T08:53:32;5.05;;;1.50;;
83151;SDS011;73381;58.502;8.624;2023-12-20T08:56:38;4.72;;;2.30;;
83151;SDS011;73381;58.502;8.624;2023-12-20T08:59:47;5.28;;;1.65;;
83151;SDS011;73381;58.502;8.624;2023-12-20T09:02:52;6.20;;;1.65;;
83151;SDS011;73381;58.502;8.624;2023-12-20T09:06:04;3.70;;;1.27;;
83151;SDS011;73381;58.502;8.624;2023-12-20T09:09:07;4.97;;;1.30;;
83151;SDS011;73381;58.502;8.624;2023-12-20T09:12:09;4.75;;;1.90;;
83151;SDS011;73381;58.502;8.624;2023-12-20T09:15:14;5.15;;;1.42;;
83151;SDS011;73381;58.502;8.624;2023-12-20T09:18:20;4.78;;;1.52;;
83151;SDS011;73381;58.502;8.624;2023-12-20T09:21:24;5.45;;;1.67;;
83151;SDS011;73381;58.502;8.624;2023-12-20T09:24:27;2.88;;;1.30;;
83151;SDS011;73381;58.502;8.624;2023-12-20T09:27:30;3.30;;;1.48;;
83151;SDS011;73381;58.502;8.624;2023-12-20T09:30:32;4.95;;;1.70;;
83151;SDS011;73381;58.502;8.624;2023-12-20T09:33:38;4.68;;;1.40;;
83151;SDS011;73381;58.502;8.624;2023-12-20T09:36:43;6.35;;;1.63;;
83151;SDS011;73381;58.502;8.624;2023-12-20T09:39:49;4.10;;;1.60;;
83151;SDS011;73381;58.502;8.624;2023-12-20T09:42:55;6.28;;;1.52;;
83151;SDS011;73381;58.502;8.624;2023-12-20T09:46:00;4.85;;;1.60;;
83151;SDS011;73381;58.502;8.624;2023-12-20T09:49:03;7.10;;;1.63;;
83151;SDS011;73381;58.502;8.624;2023-12-20T09:52:11;5.50;;;2.03;;
83151;SDS011;73381;58.502;8.624;2023-12-20T09:55:20;13.25;;;5.90;;
83151;SDS011;73381;58.502;8.624;2023-12-20T09:58:23;5.63;;;1.73;;
83151;SDS011;73381;58.502;8.624;2023-12-20T10:01:26;7.28;;;1.90;;
83151;SDS011;73381;58.502;8.624;2023-12-20T10:04:30;5.10;;;1.58;;
83151;SDS011;73381;58.502;8.624;2023-12-20T10:07:36;4.97;;;1.75;;
83151;SDS011;73381;58.502;8.624;2023-12-20T10:10:42;4.18;;;1.42;;
83151;SDS011;73381;58.502;8.624;2023-12-20T10:13:49;4.82;;;1.60;;
83151;SDS011;73381;58.502;8.624;2023-12-20T10:16:53;5.20;;;1.50;;
83151;SDS011;73381;58.502;8.624;2023-12-20T10:20:04;8.68;;;1.67;;
83151;SDS011;73381;58.502;8.624;2023-12-20T10:23:09;4.97;;;1.30;;
83151;SDS011;73381;58.502;8.624;2023-12-20T10:26:17;4.50;;;1.27;;
83151;SDS011;73381;58.502;8.624;2023-12-20T10:29:21;4.95;;;1.73;;
83151;SDS011;73381;58.502;8.624;2023-12-20T10:32:26;8.88;;;1.80;;
83151;SDS011;73381;58.502;8.624;2023-12-20T10:35:36;7.70;;;1.92;;
83151;SDS011;73381;58.502;8.624;2023-12-20T10:38:42;2.95;;;1.23;;
83151;SDS011;73381;58.502;8.624;2023-12-20T10:41:46;4.55;;;1.65;;
83151;SDS011;73381;58.502;8.624;2023-12-20T10:44:49;1.98;;;0.98;;
83151;SDS011;73381;58.502;8.624;2023-12-20T10:50:59;5.57;;;1.60;;
83151;SDS011;73381;58.502;8.624;2023-12-20T10:54:06;4.53;;;1.15;;
83151;SDS011;73381;58.502;8.624;2023-12-20T10:57:10;3.70;;;1.50;;
83151;SDS011;73381;58.502;8.624;2023-12-20T11:00:20;5.35;;;1.50;;
83151;SDS011;73381;58.502;8.624;2023-12-20T11:03:25;2.15;;;0.95;;
83151;SDS011;73381;58.502;8.624;2023-12-20T11:06:35;4.32;;;1.50;;
83151;SDS011;73381;58.502;8.624;2023-12-20T11:09:55;3.85;;;1.88;;
83151;SDS011;73381;58.502;8.624;2023-12-20T11:13:16;4.50;;;1.55;;
83151;SDS011;73381;58.502;8.624;2023-12-20T11:23:12;3.00;;;1.17;;
83151;SDS011;73381;58.502;8.624;2023-12-20T11:26:19;3.65;;;1.50;;
83151;SDS011;73381;58.502;8.624;2023-12-20T11:29:33;4.03;;;1.48;;
83151;SDS011;73381;58.502;8.624;2023-12-20T11:32:39;3.83;;;1.45;;
83151;SDS011;73381;58.502;8.624;2023-12-20T11:35:43;3.35;;;1.00;;
83151;SDS011;73381;58.502;8.624;2023-12-20T11:38:54;4.85;;;1.77;;
83151;SDS011;73381;58.502;8.624;2023-12-20T11:42:05;2.97;;;1.27;;
83151;SDS011;73381;58.502;8.624;2023-12-20T11:45:21;2.70;;;1.10;;
83151;SDS011;73381;58.502;8.624;2023-12-20T11:48:29;1.70;;;0.82;;
83151;SDS011;73381;58.502;8.624;2023-12-20T11:51:40;5.13;;;1.40;;
83151;SDS011;73381;58.502;8.624;2023-12-20T11:54:43;2.58;;;1.15;;
83151;SDS011;73381;58.502;8.624;2023-12-20T11:57:47;3.20;;;1.35;;
83151;SDS011;73381;58.502;8.624;2023-12-20T12:00:49;6.00;;;1.15;;
83151;SDS011;73381;58.502;8.624;2023-12-20T12:07:12;3.25;;;1.20;;
83151;SDS011;73381;58.502;8.624;2023-12-20T12:10:17;5.20;;;1.42;;
83151;SDS011;73381;58.502;8.624;2023-12-20T12:16:32;2.53;;;1.17;;
83151;SDS011;73381;58.502;8.624;2023-12-20T12:19:40;2.20;;;0.88;;
83151;SDS011;73381;58.502;8.624;2023-12-20T12:22:43;7.70;;;1.58;;
83151;SDS011;73381;58.502;8.624;2023-12-20T12:25:47;3.58;;;1.20;;
83151;SDS011;73381;58.502;8.624;2023-12-20T12:28:52;2.95;;;1.20;;
83151;SDS011;73381;58.502;8.624;2023-12-20T12:31:54;5.10;;;1.25;;
83151;SDS011;73381;58.502;8.624;2023-12-20T12:34:58;4.80;;;1.60;;
83151;SDS011;73381;58.502;8.624;2023-12-20T12:38:06;4.95;;;1.50;;
83151;SDS011;73381;58.502;8.624;2023-12-20T12:41:12;5.22;;;1.35;;
83151;SDS011;73381;58.502;8.624;2023-12-20T12:44:25;3.20;;;1.02;;
83151;SDS011;73381;58.502;8.624;2023-12-20T12:47:28;3.78;;;1.42;;
83151;SDS011;73381;58.502;8.624;2023-12-20T12:50:32;2.67;;;1.33;;
83151;SDS011;73381;58.502;8.624;2023-12-20T12:53:35;2.90;;;1.30;;
83151;SDS011;73381;58.502;8.624;2023-12-20T12:56:41;4.10;;;1.10;;
83151;SDS011;73381;58.502;8.624;2023-12-20T12:59:49;2.65;;;1.10;;
83151;SDS011;73381;58.502;8.624;2023-12-20T13:02:52;3.42;;;1.10;;
83151;SDS011;73381;58.502;8.624;2023-12-20T13:05:56;4.07;;;1.20;;
83151;SDS011;73381;58.502;8.624;2023-12-20T13:09:00;4.32;;;0.93;;
83151;SDS011;73381;58.502;8.624;2023-12-20T13:12:06;4.80;;;1.10;;
83151;SDS011;73381;58.502;8.624;2023-12-20T13:15:13;4.35;;;1.30;;
83151;SDS011;73381;58.502;8.624;2023-12-20T13:18:17;6.03;;;1.35;;
83151;SDS011;73381;58.502;8.624;2023-12-20T13:21:20;4.32;;;1.30;;
83151;SDS011;73381;58.502;8.624;2023-12-20T13:24:27;2.28;;;0.75;;
83151;SDS011;73381;58.502;8.624;2023-12-20T13:27:35;5.85;;;1.55;;
83151;SDS011;73381;58.502;8.624;2023-12-20T13:30:42;3.92;;;1.10;;
83151;SDS011;73381;58.502;8.624;2023-12-20T13:33:47;10.25;;;1.50;;
83151;SDS011;73381;58.502;8.624;2023-12-20T13:36:51;3.55;;;1.20;;
83151;SDS011;73381;58.502;8.624;2023-12-20T13:39:54;3.40;;;1.20;;
83151;SDS011;73381;58.502;8.624;2023-12-20T13:42:56;3.75;;;1.20;;
83151;SDS011;73381;58.502;8.624;2023-12-20T13:46:00;3.53;;;1.05;;
83151;SDS011;73381;58.502;8.624;2023-12-20T13:49:02;2.97;;;1.00;;
83151;SDS011;73381;58.502;8.624;2023-12-20T13:52:09;2.78;;;1.00;;
83151;SDS011;73381;58.502;8.624;2023-12-20T13:55:23;2.55;;;0.90;;
83151;SDS011;73381;58.502;8.624;2023-12-20T13:58:25;5.07;;;1.13;;
83151;SDS011;73381;58.502;8.624;2023-12-20T14:01:29;2.55;;;0.80;;
83151;SDS011;73381;58.502;8.624;2023-12-20T14:04:32;2.35;;;0.75;;
83151;SDS011;73381;58.502;8.624;2023-12-20T14:07:44;2.80;;;0.75;;
83151;SDS011;73381;58.502;8.624;2023-12-20T14:10:53;5.18;;;0.88;;
83151;SDS011;73381;58.502;8.624;2023-12-20T14:13:57;1.95;;;0.65;;
83151;SDS011;73381;58.502;8.624;2023-12-20T14:17:00;2.67;;;0.90;;
83151;SDS011;73381;58.502;8.624;2023-12-20T14:20:07;1.33;;;0.50;;
83151;SDS011;73381;58.502;8.624;2023-12-20T14:23:15;3.92;;;0.98;;
83151;SDS011;73381;58.502;8.624;2023-12-20T14:26:17;2.00;;;0.70;;
83151;SDS011;73381;58.502;8.624;2023-12-20T14:29:19;3.42;;;1.08;;
83151;SDS011;73381;58.502;8.624;2023-12-20T14:32:27;4.00;;;0.82;;
83151;SDS011;73381;58.502;8.624;2023-12-20T14:35:31;2.10;;;0.63;;
83151;SDS011;73381;58.502;8.624;2023-12-20T14:38:36;2.15;;;0.70;;
83151;SDS011;73381;58.502;8.624;2023-12-20T14:41:38;1.90;;;0.55;;
83151;SDS011;73381;58.502;8.624;2023-12-20T14:44:40;3.05;;;0.65;;
83151;SDS011;73381;58.502;8.624;2023-12-20T14:47:43;3.10;;;0.80;;
83151;SDS011;73381;58.502;8.624;2023-12-20T14:50:46;3.20;;;0.82;;
83151;SDS011;73381;58.502;8.624;2023-12-20T14:53:52;3.63;;;0.90;;
83151;SDS011;73381;58.502;8.624;2023-12-20T14:56:54;1.95;;;0.70;;
83151;SDS011;73381;58.502;8.624;2023-12-20T15:00:06;1.83;;;0.52;;
83151;SDS011;73381;58.502;8.624;2023-12-20T15:03:10;1.70;;;0.60;;
83151;SDS011;73381;58.502;8.624;2023-12-20T15:06:13;2.90;;;0.90;;
83151;SDS011;73381;58.502;8.624;2023-12-20T15:09:22;2.35;;;0.70;;
83151;SDS011;73381;58.502;8.624;2023-12-20T15:12:24;2.40;;;0.95;;
83151;SDS011;73381;58.502;8.624;2023-12-20T15:15:29;3.17;;;0.98;;
83151;SDS011;73381;58.502;8.624;2023-12-20T15:18:39;3.70;;;1.02;;
83151;SDS011;73381;58.502;8.624;2023-12-20T15:21:41;2.50;;;1.00;;
83151;SDS011;73381;58.502;8.624;2023-12-20T15:24:48;4.68;;;0.77;;
83151;SDS011;73381;58.502;8.624;2023-12-20T15:27:50;3.03;;;1.20;;
83151;SDS011;73381;58.502;8.624;2023-12-20T15:30:54;2.63;;;1.02;;
83151;SDS011;73381;58.502;8.624;2023-12-20T15:34:11;4.05;;;1.10;;
83151;SDS011;73381;58.502;8.624;2023-12-20T15:37:14;3.35;;;0.93;;
83151;SDS011;73381;58.502;8.624;2023-12-20T15:40:18;3.65;;;1.05;;
83151;SDS011;73381;58.502;8.624;2023-12-20T15:43:27;3.85;;;1.20;;
83151;SDS011;73381;58.502;8.624;2023-12-20T15:46:33;3.67;;;0.90;;
83151;SDS011;73381;58.502;8.624;2023-12-20T15:52:40;1.25;;;0.55;;
83151;SDS011;73381;58.502;8.624;2023-12-20T15:55:43;2.53;;;0.90;;
83151;SDS011;73381;58.502;8.624;2023-12-20T15:58:52;2.83;;;0.77;;
83151;SDS011;73381;58.502;8.624;2023-12-20T16:01:55;2.00;;;0.77;;
83151;SDS011;73381;58.502;8.624;2023-12-20T16:04:59;5.80;;;0.85;;
83151;SDS011;73381;58.502;8.624;2023-12-20T16:08:04;1.73;;;0.70;;
83151;SDS011;73381;58.502;8.624;2023-12-20T16:11:10;2.80;;;0.90;;
83151;SDS011;73381;58.502;8.624;2023-12-20T16:14:13;3.35;;;0.93;;
83151;SDS011;73381;58.502;8.624;2023-12-20T16:17:17;8.07;;;1.10;;
83151;SDS011;73381;58.502;8.624;2023-12-20T16:20:22;3.10;;;1.13;;
83151;SDS011;73381;58.502;8.624;2023-12-20T16:23:24;2.22;;;0.82;;
83151;SDS011;73381;58.502;8.624;2023-12-20T16:26:28;3.15;;;1.02;;
83151;SDS011;73381;58.502;8.624;2023-12-20T16:29:31;1.95;;;0.68;;
83151;SDS011;73381;58.502;8.624;2023-12-20T16:32:34;2.72;;;0.95;;
83151;SDS011;73381;58.502;8.624;2023-12-20T16:38:41;1.27;;;0.60;;
83151;SDS011;73381;58.502;8.624;2023-12-20T16:41:44;1.92;;;0.55;;
83151;SDS011;73381;58.502;8.624;2023-12-20T16:44:46;4.95;;;0.70;;
83151;SDS011;73381;58.502;8.624;2023-12-20T16:47:50;1.52;;;0.47;;
83151;SDS011;73381;58.502;8.624;2023-12-20T16:50:55;1.77;;;0.88;;
83151;SDS011;73381;58.502;8.624;2023-12-20T16:53:57;3.65;;;0.50;;
83151;SDS011;73381;58.502;8.624;2023-12-20T16:57:01;1.85;;;0.52;;
83151;SDS011;73381;58.502;8.624;2023-12-20T17:00:03;2.03;;;0.52;;
83151;SDS011;73381;58.502;8.624;2023-12-20T17:03:08;2.45;;;0.88;;
83151;SDS011;73381;58.502;8.624;2023-12-20T17:06:13;5.20;;;1.00;;
83151;SDS011;73381;58.502;8.624;2023-12-20T17:09:15;2.13;;;0.85;;
83151;SDS011;73381;58.502;8.624;2023-12-20T17:12:20;1.52;;;0.65;;
83151;SDS011;73381;58.502;8.624;2023-12-20T17:15:23;2.70;;;0.60;;
83151;SDS011;73381;58.502;8.624;2023-12-20T17:18:27;1.55;;;0.63;;
83151;SDS011;73381;58.502;8.624;2023-12-20T17:21:34;1.65;;;0.70;;
83151;SDS011;73381;58.502;8.624;2023-12-20T17:24:36;1.60;;;0.63;;
83151;SDS011;73381;58.502;8.624;2023-12-20T17:27:43;3.15;;;0.60;;
83151;SDS011;73381;58.502;8.624;2023-12-20T17:30:46;3.10;;;0.73;;
83151;SDS011;73381;58.502;8.624;2023-12-20T17:33:49;1.95;;;0.60;;
83151;SDS011;73381;58.502;8.624;2023-12-20T17:36:53;1.58;;;0.60;;
83151;SDS011;73381;58.502;8.624;2023-12-20T17:39:56;1.83;;;0.60;;
83151;SDS011;73381;58.502;8.624;2023-12-20T17:43:00;1.52;;;0.52;;
83151;SDS011;73381;58.502;8.624;2023-12-20T17:46:03;1.02;;;0.45;;
83151;SDS011;73381;58.502;8.624;2023-12-20T17:49:07;3.42;;;0.75;;
83151;SDS011;73381;58.502;8.624;2023-12-20T17:52:13;2.55;;;0.57;;
83151;SDS011;73381;58.502;8.624;2023-12-20T17:55:15;2.30;;;0.52;;
83151;SDS011;73381;58.502;8.624;2023-12-20T17:58:21;2.45;;;0.70;;
83151;SDS011;73381;58.502;8.624;2023-12-20T18:01:24;1.92;;;0.55;;
83151;SDS011;73381;58.502;8.624;2023-12-20T18:04:27;2.72;;;0.93;;
83151;SDS011;73381;58.502;8.624;2023-12-20T18:07:35;2.15;;;0.82;;
83151;SDS011;73381;58.502;8.624;2023-12-20T18:10:39;3.05;;;0.90;;
83151;SDS011;73381;58.502;8.624;2023-12-20T18:13:43;3.58;;;0.50;;
83151;SDS011;73381;58.502;8.624;2023-12-20T18:16:46;3.03;;;1.02;;
83151;SDS011;73381;58.502;8.624;2023-12-20T18:19:48;2.47;;;0.60;;
83151;SDS011;73381;58.502;8.624;2023-12-20T18:22:53;1.02;;;0.45;;
83151;SDS011;73381;58.502;8.624;2023-12-20T18:25:55;3.22;;;1.00;;
83151;SDS011;73381;58.502;8.624;2023-12-20T18:28:57;3.47;;;0.70;;
83151;SDS011;73381;58.502;8.624;2023-12-20T18:31:59;3.53;;;0.80;;
83151;SDS011;73381;58.502;8.624;2023-12-20T18:35:04;5.68;;;1.30;;
83151;SDS011;73381;58.502;8.624;2023-12-20T18:38:13;2.08;;;0.55;;
83151;SDS011;73381;58.502;8.624;2023-12-20T18:41:17;1.70;;;0.57;;
83151;SDS011;73381;58.502;8.624;2023-12-20T18:44:24;4.30;;;1.10;;
83151;SDS011;73381;58.502;8.624;2023-12-20T18:47:30;4.68;;;0.85;;
83151;SDS011;73381;58.502;8.624;2023-12-20T18:50:36;1.77;;;0.60;;
83151;SDS011;73381;58.502;8.624;2023-12-20T18:53:44;8.15;;;0.80;;
83151;SDS011;73381;58.502;8.624;2023-12-20T18:56:46;1.45;;;0.52;;
83151;SDS011;73381;58.502;8.624;2023-12-20T18:59:48;7.88;;;0.80;;
83151;SDS011;73381;58.502;8.624;2023-12-20T19:02:52;3.13;;;0.80;;
83151;SDS011;73381;58.502;8.624;2023-12-20T19:05:58;2.33;;;0.70;;
83151;SDS011;73381;58.502;8.624;2023-12-20T19:09:07;5.63;;;0.73;;
83151;SDS011;73381;58.502;8.624;2023-12-20T19:12:12;1.38;;;0.55;;
83151;SDS011;73381;58.502;8.624;2023-12-20T19:15:15;2.17;;;0.80;;
83151;SDS011;73381;58.502;8.624;2023-12-20T19:18:18;2.53;;;0.70;;
83151;SDS011;73381;58.502;8.624;2023-12-20T19:21:21;3.30;;;0.95;;
83151;SDS011;73381;58.502;8.624;2023-12-20T19:24:29;1.83;;;0.60;;
83151;SDS011;73381;58.502;8.624;2023-12-20T19:27:33;1.95;;;0.80;;
83151;SDS011;73381;58.502;8.624;2023-12-20T19:30:37;7.07;;;1.05;;
83151;SDS011;73381;58.502;8.624;2023-12-20T19:33:42;5.03;;;0.88;;
83151;SDS011;73381;58.502;8.624;2023-12-20T19:36:45;3.03;;;0.98;;